Hue, Viet Nam

3:12 AM ICT on January 30, 2015 (GMT +0700)
Phubai | Change Station
CLOSE
Current Station
Airport
Location: Hue,
Elevation: 56 ft
Nearby Weather Stations

Elev 56 ft 16.40 °N, 107.70 °E | Updated 12 minutes ago

Scattered Clouds
Scattered Clouds
68 °F
Feels Like 68 °F
N
1
Wind Variable Wind from Variable

Today
High -- | Low -- °F
--% Chance of Precip.
Yesterday
High -- | Low -- °F
Precip. -- in
6:20 AM 5:44 PM
Waxing Gibbous, 76% visible
Pressure 30.01 in
Visibility 3.7 miles
Clouds Scattered Clouds 4000 ft
Dew Point 66 °F
Humidity 94%
Rainfall 0.00 in
Snow Depth Not available.
UV 0 out of 12
Pollen Not available.
Air Quality Not available.
Flu Activity Not available.
METAR VVPB 292000Z VRB01KT 6000 SCT040 20/19 Q1016 NOSIG

More Conditions Fewer Conditions

Pressure 30.01 in
Visibility 3.7 miles
Clouds Scattered Clouds 4000 ft
Dew Point 66 °F
Humidity 94%
Rainfall 0.00 in
Snow Depth Not available.
UV 0 out of 12
Pollen Not available.
Air Quality Not available.
Flu Activity Not available.
METAR VVPB 292000Z VRB01KT 6000 SCT040 20/19 Q1016 NOSIG

More Conditions Fewer Conditions

10-Day Weather Forecast

Almanac

Astronomy

Jan. 30, 2015 Rise Set
Actual Time
Civil Twilight
Nautical Twilight
Astronomical Twilight
Moon
Length of Visible Light
Length of Day
Tomorrow will be .
, % of the Moon is Illuminated

Today's Extremes

Country Highs Country Lows

Community

WunderPhotos

Upload Photos

1,791,576 photos uploaded!

WunderBlogs® & News

Nearby

Air Quality

  Air Quality AQ Index Pollutant
Not available.

Snow Depth

Station Depth Elevation

Earthquake Activity

City Distance Mag. Time & Date
Minimum magnitude displayed is 2.5.

Coastal Water Temperatures

Place Temperature

Nearby Weather Stations